createdAt,value
2017-11-11T00:00:43.467Z,7.31
2017-11-11T00:01:43.127Z,7.27
2017-11-11T00:02:43.433Z,7.28
2017-11-11T00:03:43.436Z,7.27
2017-11-11T00:04:43.413Z,7.28
2017-11-11T00:05:43.402Z,7.31
2017-11-11T00:06:43.394Z,7.2
2017-11-11T00:07:43.392Z,7.31
2017-11-11T00:08:43.368Z,7.3
2017-11-11T00:09:43.033Z,7.21
2017-11-11T00:10:43.341Z,7.27
2017-11-11T00:11:43.335Z,7.27
2017-11-11T00:12:43.321Z,7.24
2017-11-11T00:13:42.986Z,7.31
2017-11-11T00:14:43.300Z,7.34
2017-11-11T00:15:43.282Z,7.27
2017-11-11T00:16:43.277Z,7.31
2017-11-11T00:17:42.946Z,7.3
2017-11-11T00:18:43.249Z,7.27
2017-11-11T00:19:43.242Z,7.37
2017-11-11T00:20:43.229Z,7.27
2017-11-11T00:21:43.219Z,7.35
2017-11-11T00:22:43.217Z,7.34
2017-11-11T00:23:43.193Z,7.3
2017-11-11T00:24:43.183Z,7.35
2017-11-11T00:25:43.172Z,7.3
2017-11-11T00:26:43.155Z,7.34
2017-11-11T00:27:43.145Z,7.34
2017-11-11T00:28:43.142Z,7.34
2017-11-11T00:29:43.130Z,7.31
2017-11-11T00:30:43.121Z,7.3
2017-11-11T00:31:43.102Z,7.25
2017-11-11T00:32:42.783Z,7.34
2017-11-11T00:33:43.079Z,7.39
2017-11-11T00:34:43.070Z,7.42
2017-11-11T00:35:42.728Z,7.32
2017-11-11T00:36:42.714Z,7.35
2017-11-11T00:37:42.718Z,7.4
2017-11-11T00:38:43.019Z,7.39
2017-11-11T00:39:43.025Z,7.28
2017-11-11T00:40:43.007Z,7.28
2017-11-11T00:41:42.985Z,7.37
2017-11-11T00:42:42.975Z,7.37
2017-11-11T00:43:42.960Z,7.4
2017-11-11T00:44:42.955Z,7.4
2017-11-11T00:45:42.937Z,7.43
2017-11-11T00:46:42.611Z,7.43
2017-11-11T00:47:42.924Z,7.39
2017-11-11T00:48:42.902Z,7.43
2017-11-11T00:49:42.567Z,7.42
2017-11-11T00:50:42.889Z,7.43
2017-11-11T00:51:42.865Z,7.39
2017-11-11T00:52:42.856Z,7.45
2017-11-11T00:53:42.895Z,7.5
2017-11-11T00:54:42.837Z,7.43
2017-11-11T00:55:42.835Z,7.42
2017-11-11T00:56:42.815Z,7.42
2017-11-11T00:57:42.802Z,7.45
2017-11-11T00:58:42.783Z,7.43
2017-11-11T00:59:42.780Z,7.43
2017-11-11T01:00:42.767Z,7.37
2017-11-11T01:01:42.769Z,7.46
2017-11-11T01:02:42.740Z,7.46
2017-11-11T01:03:42.727Z,7.43
2017-11-11T01:04:42.718Z,7.43
2017-11-11T01:05:42.392Z,7.39
2017-11-11T01:06:42.369Z,7.42
2017-11-11T01:07:42.683Z,7.25
2017-11-11T01:08:42.673Z,7.3
2017-11-11T01:09:42.659Z,7.27
2017-11-11T01:10:42.665Z,7.27
2017-11-11T01:11:42.644Z,7.4
2017-11-11T01:12:42.639Z,7.3
2017-11-11T01:13:42.615Z,7.34
2017-11-11T01:14:42.287Z,7.4
2017-11-11T01:15:42.594Z,7.42
2017-11-11T01:16:42.578Z,7.39
2017-11-11T01:17:42.570Z,7.39
2017-11-11T01:18:42.555Z,7.42
2017-11-11T01:19:42.544Z,7.39
2017-11-11T01:20:42.208Z,7.37
2017-11-11T01:21:42.202Z,7.34
2017-11-11T01:22:42.540Z,7.45
2017-11-11T01:23:42.498Z,7.4
2017-11-11T01:24:42.494Z,7.4
2017-11-11T01:25:42.474Z,7.48
2017-11-11T01:26:42.466Z,7.48
2017-11-11T01:27:42.448Z,7.45
2017-11-11T01:28:42.447Z,7.39
2017-11-11T01:29:42.433Z,7.5
2017-11-11T01:30:42.088Z,7.45
2017-11-11T01:31:42.410Z,7.39
2017-11-11T01:32:42.395Z,7.42
2017-11-11T01:33:42.380Z,7.42
2017-11-11T01:34:42.383Z,7.46
2017-11-11T01:35:42.391Z,7.49
2017-11-11T01:36:42.347Z,7.49
2017-11-11T01:37:42.337Z,7.39
2017-11-11T01:38:42.329Z,7.42
2017-11-11T01:39:41.996Z,7.43
2017-11-11T01:40:42.319Z,7.43
2017-11-11T01:41:42.297Z,7.5
2017-11-11T01:42:42.303Z,7.4
2017-11-11T01:43:42.272Z,7.42
2017-11-11T01:44:42.281Z,7.42
2017-11-11T01:45:41.921Z,7.5
2017-11-11T01:46:42.255Z,7.49
2017-11-11T01:47:42.225Z,7.46
2017-11-11T01:48:42.259Z,7.37
2017-11-11T01:49:42.199Z,7.46
2017-11-11T01:50:42.188Z,7.39
2017-11-11T01:51:42.189Z,7.46
2017-11-11T01:52:42.167Z,7.48
2017-11-11T01:53:42.167Z,7.42
2017-11-11T01:54:41.816Z,7.46
2017-11-11T01:55:42.131Z,7.35
2017-11-11T01:56:42.119Z,7.39
2017-11-11T01:57:42.119Z,7.42
2017-11-11T01:58:42.093Z,7.4
2017-11-11T01:59:42.086Z,7.49
2017-11-11T02:00:42.073Z,7.43
2017-11-11T02:01:42.070Z,7.43
2017-11-11T02:02:42.057Z,7.42
2017-11-11T02:03:42.040Z,7.25
2017-11-11T02:04:42.030Z,7.35
2017-11-11T02:05:42.017Z,7.4
2017-11-11T02:06:42.004Z,7.28
2017-11-11T02:07:41.994Z,7.35
2017-11-11T02:08:41.988Z,7.42
2017-11-11T02:09:41.976Z,7.31
2017-11-11T02:10:41.966Z,7.4
2017-11-11T02:11:41.945Z,7.39
2017-11-11T02:12:41.957Z,7.43
2017-11-11T02:13:41.919Z,7.39
2017-11-11T02:14:41.914Z,7.39
2017-11-11T02:15:41.898Z,7.35
2017-11-11T02:16:41.897Z,7.46
2017-11-11T02:17:41.878Z,7.49
2017-11-11T02:18:41.868Z,7.4
2017-11-11T02:19:41.854Z,7.4
2017-11-11T02:20:41.847Z,7.39
2017-11-11T02:21:42.091Z,7.4
2017-11-11T02:22:41.851Z,7.4
2017-11-11T02:23:41.492Z,7.46
2017-11-11T02:24:41.806Z,7.43
2017-11-11T02:25:41.787Z,7.46
2017-11-11T02:26:41.772Z,7.39
2017-11-11T02:27:41.761Z,7.43
2017-11-11T02:28:41.758Z,7.43
2017-11-11T02:29:41.740Z,7.46
2017-11-11T02:30:41.730Z,7.43
2017-11-11T02:31:41.391Z,7.49
2017-11-11T02:32:41.709Z,7.46
2017-11-11T02:33:41.692Z,7.42
2017-11-11T02:34:41.684Z,7.48
2017-11-11T02:35:41.677Z,7.42
2017-11-11T02:36:41.669Z,7.43
2017-11-11T02:37:41.651Z,7.55
2017-11-11T02:38:41.306Z,7.53
2017-11-11T02:39:41.631Z,7.46
2017-11-11T02:40:41.621Z,7.53
2017-11-11T02:41:41.277Z,7.46
2017-11-11T02:42:41.610Z,7.52
2017-11-11T02:43:41.590Z,7.63
2017-11-11T02:44:41.570Z,7.55
2017-11-11T02:45:41.563Z,7.49
2017-11-11T02:46:41.558Z,7.46
2017-11-11T02:47:41.538Z,7.46
2017-11-11T02:48:41.542Z,7.43
2017-11-11T02:49:41.514Z,7.42
2017-11-11T02:50:41.522Z,7.4
2017-11-11T02:51:41.190Z,7.32
2017-11-11T02:52:41.490Z,7.28
2017-11-11T02:53:41.472Z,7.39
2017-11-11T02:54:41.453Z,7.3
2017-11-11T02:55:41.438Z,7.31
2017-11-11T02:56:41.430Z,7.4
2017-11-11T02:57:41.418Z,7.3
2017-11-11T02:58:41.419Z,7.35
2017-11-11T02:59:41.392Z,7.31
2017-11-11T03:00:41.405Z,7.27
2017-11-11T03:01:41.381Z,7.3
2017-11-11T03:02:41.365Z,7.32
2017-11-11T03:03:41.345Z,7.28
2017-11-11T03:04:41.376Z,7.32
2017-11-11T03:05:41.004Z,7.3
2017-11-11T03:06:41.322Z,7.31
2017-11-11T03:07:41.316Z,7.27
2017-11-11T03:08:41.294Z,7.28
2017-11-11T03:09:41.292Z,7.3
2017-11-11T03:10:41.289Z,7.21
2017-11-11T03:11:41.269Z,7.34
2017-11-11T03:12:41.253Z,7.3
2017-11-11T03:13:41.229Z,7.27
2017-11-11T03:14:41.223Z,7.37
2017-11-11T03:15:41.210Z,7.27
2017-11-11T03:16:41.200Z,7.32
2017-11-11T03:17:41.205Z,7.39
2017-11-11T03:18:41.178Z,7.3
2017-11-11T03:19:41.170Z,7.34
2017-11-11T03:20:41.151Z,7.39
2017-11-11T03:21:41.136Z,7.34
2017-11-11T03:22:41.143Z,7.45
2017-11-11T03:23:40.793Z,7.42
2017-11-11T03:24:41.143Z,7.43
2017-11-11T03:25:41.093Z,7.4
2017-11-11T03:26:41.079Z,7.43
2017-11-11T03:27:41.076Z,7.39
2017-11-11T03:28:40.732Z,7.46
2017-11-11T03:29:41.046Z,7.45
2017-11-11T03:30:41.089Z,7.42
2017-11-11T03:31:41.027Z,7.4
2017-11-11T03:32:41.020Z,7.46
2017-11-11T03:33:41.005Z,7.43
2017-11-11T03:34:40.988Z,7.49
2017-11-11T03:35:40.979Z,7.39
2017-11-11T03:36:40.644Z,7.42
2017-11-11T03:37:40.632Z,7.42
2017-11-11T03:38:40.945Z,7.4
2017-11-11T03:39:40.932Z,7.39
2017-11-11T03:40:40.954Z,7.43
2017-11-11T03:41:40.929Z,7.4
2017-11-11T03:42:40.899Z,7.34
2017-11-11T03:43:40.886Z,7.43
2017-11-11T03:44:40.875Z,7.42
2017-11-11T03:45:40.872Z,7.39
2017-11-11T03:46:40.869Z,7.4
2017-11-11T03:47:40.843Z,7.45
2017-11-11T03:48:40.828Z,7.37
2017-11-11T03:49:40.817Z,7.42
2017-11-11T03:50:40.807Z,7.46
2017-11-11T03:51:40.792Z,7.42
2017-11-11T03:52:40.787Z,7.45
2017-11-11T03:53:40.778Z,7.46
2017-11-11T03:54:40.755Z,7.39
2017-11-11T03:55:40.744Z,7.42
2017-11-11T03:56:40.739Z,7.42
2017-11-11T03:57:40.726Z,7.4
2017-11-11T03:58:40.710Z,7.43
2017-11-11T03:59:40.706Z,7.42
2017-11-11T04:00:40.688Z,7.39
2017-11-11T04:01:40.678Z,7.35
2017-11-11T04:02:40.668Z,7.37
2017-11-11T04:03:40.658Z,7.45
2017-11-11T04:04:40.642Z,7.4
2017-11-11T04:05:40.649Z,7.42
2017-11-11T04:06:40.619Z,7.4
2017-11-11T04:07:40.608Z,7.31
2017-11-11T04:08:40.596Z,7.24
2017-11-11T04:09:40.588Z,7.31
2017-11-11T04:10:40.572Z,7.3
2017-11-11T04:11:40.556Z,7.27
2017-11-11T04:12:40.549Z,7.31
2017-11-11T04:13:40.218Z,7.23
2017-11-11T04:14:40.526Z,7.17
2017-11-11T04:15:40.525Z,7.12
2017-11-11T04:16:40.506Z,7.2
2017-11-11T04:17:40.499Z,7.16
2017-11-11T04:18:40.483Z,7.21
2017-11-11T04:19:40.468Z,7.21
2017-11-11T04:20:40.492Z,7.13
2017-11-11T04:21:40.477Z,7.16
2017-11-11T04:22:40.436Z,7.1
2017-11-11T04:23:40.100Z,7.15
2017-11-11T04:24:40.086Z,7.2
2017-11-11T04:25:40.408Z,7.15
2017-11-11T04:26:40.387Z,7.09
2017-11-11T04:27:40.377Z,7.06
2017-11-11T04:28:40.368Z,7.05
2017-11-11T04:29:40.351Z,7.1
2017-11-11T04:30:40.013Z,7.05
2017-11-11T04:31:40.337Z,7.2
2017-11-11T04:32:39.993Z,7.1
2017-11-11T04:33:40.302Z,7.07
2017-11-11T04:34:40.297Z,7.15
2017-11-11T04:35:40.288Z,7.1
2017-11-11T04:36:40.267Z,7.13
2017-11-11T04:37:39.932Z,7.2
2017-11-11T04:38:40.247Z,6.98
2017-11-11T04:39:40.243Z,7.09
2017-11-11T04:40:40.227Z,7.02
2017-11-11T04:41:40.209Z,7.05
2017-11-11T04:42:40.199Z,7.27
2017-11-11T04:43:40.191Z,7.16
2017-11-11T04:44:39.850Z,7.17
2017-11-11T04:45:40.175Z,7.21
2017-11-11T04:46:40.172Z,7.2
2017-11-11T04:47:39.818Z,7.2
2017-11-11T04:48:40.138Z,7.21
2017-11-11T04:49:40.137Z,7.2
2017-11-11T04:50:39.779Z,7.17
2017-11-11T04:51:40.100Z,7.09
2017-11-11T04:52:40.085Z,7.12
2017-11-11T04:53:40.074Z,7.2
2017-11-11T04:54:40.064Z,7.13
2017-11-11T04:55:40.042Z,7.16
2017-11-11T04:56:40.036Z,7.15
2017-11-11T04:57:40.026Z,7.16
2017-11-11T04:58:40.012Z,7.07
2017-11-11T04:59:40.003Z,7.17
2017-11-11T05:00:39.996Z,7.17
2017-11-11T05:01:39.986Z,7.2
2017-11-11T05:02:39.983Z,7.23
2017-11-11T05:03:39.956Z,7.17
2017-11-11T05:04:39.945Z,7.17
2017-11-11T05:05:39.945Z,7.24
2017-11-11T05:06:39.925Z,7.23
2017-11-11T05:07:39.913Z,7.34
2017-11-11T05:08:39.893Z,7.4
2017-11-11T05:09:39.881Z,7.3
2017-11-11T05:10:39.876Z,7.31
2017-11-11T05:11:39.536Z,7.27
2017-11-11T05:12:39.850Z,7.28
2017-11-11T05:13:39.837Z,7.37
2017-11-11T05:14:39.826Z,7.43
2017-11-11T05:15:39.823Z,7.39
2017-11-11T05:16:39.480Z,7.42
2017-11-11T05:17:39.793Z,7.39
2017-11-11T05:18:39.451Z,7.46
2017-11-11T05:19:39.767Z,7.43
2017-11-11T05:20:39.428Z,7.42
2017-11-11T05:21:39.739Z,7.39
2017-11-11T05:22:39.733Z,7.46
2017-11-11T05:23:39.719Z,7.43
2017-11-11T05:24:39.390Z,7.45
2017-11-11T05:25:39.739Z,7.48
2017-11-11T05:26:39.684Z,7.5
2017-11-11T05:27:39.682Z,7.6
2017-11-11T05:28:39.662Z,7.53
2017-11-11T05:29:39.655Z,7.55
2017-11-11T05:30:39.640Z,7.49
2017-11-11T05:31:39.307Z,7.52
2017-11-11T05:32:39.620Z,7.64
2017-11-11T05:33:39.288Z,7.48
2017-11-11T05:34:39.269Z,7.53
2017-11-11T05:35:39.584Z,7.64
2017-11-11T05:36:39.578Z,7.63
2017-11-11T05:37:39.557Z,7.52
2017-11-11T05:38:39.549Z,7.63
2017-11-11T05:39:39.537Z,7.58
2017-11-11T05:40:39.529Z,7.57
2017-11-11T05:41:39.522Z,7.53
2017-11-11T05:42:39.499Z,7.55
2017-11-11T05:43:39.507Z,7.55
2017-11-11T05:44:39.498Z,7.57
2017-11-11T05:45:39.475Z,7.61
2017-11-11T05:46:39.146Z,7.6
2017-11-11T05:47:39.457Z,7.58
2017-11-11T05:48:39.433Z,7.5
2017-11-11T05:49:39.430Z,7.63
2017-11-11T05:50:39.426Z,7.49
2017-11-11T05:51:39.397Z,7.58
2017-11-11T05:52:39.061Z,7.57
2017-11-11T05:53:39.378Z,7.57
2017-11-11T05:54:39.365Z,7.55
2017-11-11T05:55:39.362Z,7.57
2017-11-11T05:56:39.359Z,7.58
2017-11-11T05:57:39.339Z,7.6
2017-11-11T05:58:39.318Z,7.58
2017-11-11T05:59:39.316Z,7.58
2017-11-11T06:00:39.295Z,7.55
2017-11-11T06:01:39.289Z,7.55
2017-11-11T06:02:39.300Z,7.52
2017-11-11T06:03:39.268Z,7.58
2017-11-11T06:04:39.251Z,7.6
2017-11-11T06:05:39.240Z,7.52
2017-11-11T06:06:39.244Z,7.64
2017-11-11T06:07:38.893Z,7.5
2017-11-11T06:08:39.205Z,7.61
2017-11-11T06:09:39.194Z,7.58
2017-11-11T06:10:39.193Z,7.58
2017-11-11T06:11:39.172Z,7.53
2017-11-11T06:12:39.159Z,7.6
2017-11-11T06:13:38.830Z,7.6
2017-11-11T06:14:39.137Z,7.57
2017-11-11T06:15:39.136Z,7.58
2017-11-11T06:16:39.111Z,7.6
2017-11-11T06:17:39.103Z,7.71
2017-11-11T06:18:39.095Z,7.6
2017-11-11T06:19:39.082Z,7.55
2017-11-11T06:20:39.072Z,7.61
2017-11-11T06:21:39.062Z,7.57
2017-11-11T06:22:39.040Z,7.57
2017-11-11T06:23:39.045Z,7.6
2017-11-11T06:24:38.705Z,7.6
2017-11-11T06:25:39.008Z,7.6
2017-11-11T06:26:39.000Z,7.67
2017-11-11T06:27:38.988Z,7.67
2017-11-11T06:28:38.984Z,7.64
2017-11-11T06:29:38.962Z,7.67
2017-11-11T06:30:38.954Z,7.64
2017-11-11T06:31:38.968Z,7.67
2017-11-11T06:32:38.931Z,7.69
2017-11-11T06:33:38.606Z,7.74
2017-11-11T06:34:38.910Z,7.61
2017-11-11T06:35:38.894Z,7.68
2017-11-11T06:36:38.888Z,7.69
2017-11-11T06:37:38.225Z,7.69
2017-11-11T06:38:38.538Z,7.67
2017-11-11T06:39:38.856Z,7.67
2017-11-11T06:40:38.518Z,7.55
2017-11-11T06:41:38.508Z,7.57
2017-11-11T06:42:38.829Z,7.6
2017-11-11T06:43:38.808Z,7.53
2017-11-11T06:44:38.795Z,7.58
2017-11-11T06:45:38.793Z,7.6
2017-11-11T06:46:38.774Z,7.68
2017-11-11T06:47:38.762Z,7.58
2017-11-11T06:48:38.754Z,7.6
2017-11-11T06:49:38.755Z,7.58
2017-11-11T06:50:38.407Z,7.57
2017-11-11T06:51:38.712Z,7.53
2017-11-11T06:52:38.721Z,7.64
2017-11-11T06:53:38.703Z,7.6
2017-11-11T06:54:38.681Z,7.57
2017-11-11T06:55:38.670Z,7.58
2017-11-11T06:56:38.660Z,7.53
2017-11-11T06:57:38.645Z,7.61
2017-11-11T06:58:38.637Z,7.52
2017-11-11T06:59:38.638Z,7.57
2017-11-11T07:00:38.617Z,7.57
2017-11-11T07:01:38.603Z,7.55
2017-11-11T07:02:38.594Z,7.6
2017-11-11T07:03:38.579Z,7.57
2017-11-11T07:04:38.244Z,7.55
2017-11-11T07:05:38.591Z,7.71
2017-11-11T07:06:38.549Z,7.58
2017-11-11T07:07:38.540Z,7.6
2017-11-11T07:08:38.203Z,7.63
2017-11-11T07:09:38.512Z,7.57
2017-11-11T07:10:38.181Z,7.55
2017-11-11T07:11:38.521Z,7.58
2017-11-11T07:12:38.160Z,7.58
2017-11-11T07:13:38.470Z,7.58
2017-11-11T07:14:38.455Z,7.61
2017-11-11T07:15:38.118Z,7.53
2017-11-11T07:16:38.431Z,7.61
2017-11-11T07:17:38.429Z,7.55
2017-11-11T07:18:38.414Z,7.52
2017-11-11T07:19:38.406Z,7.61
2017-11-11T07:20:38.385Z,7.58
2017-11-11T07:21:38.374Z,7.57
2017-11-11T07:22:38.368Z,7.52
2017-11-11T07:23:38.359Z,7.63
2017-11-11T07:24:38.350Z,7.63
2017-11-11T07:25:38.334Z,7.61
2017-11-11T07:26:38.323Z,7.55
2017-11-11T07:27:37.983Z,7.57
2017-11-11T07:28:38.297Z,7.52
2017-11-11T07:29:38.281Z,7.58
2017-11-11T07:30:38.278Z,7.53
2017-11-11T07:31:38.268Z,7.57
2017-11-11T07:32:38.248Z,7.61
2017-11-11T07:33:38.254Z,7.69
2017-11-11T07:34:37.898Z,7.6
2017-11-11T07:35:38.246Z,7.64
2017-11-11T07:36:38.217Z,7.68
2017-11-11T07:37:38.209Z,7.69
2017-11-11T07:38:37.862Z,7.71
2017-11-11T07:39:37.851Z,7.71
2017-11-11T07:40:38.158Z,7.69
2017-11-11T07:41:38.150Z,7.67
2017-11-11T07:42:37.808Z,7.69
2017-11-11T07:43:38.184Z,7.75
2017-11-11T07:44:38.112Z,7.83
2017-11-11T07:45:38.105Z,7.85
2017-11-11T07:46:38.087Z,8
2017-11-11T07:47:38.090Z,8.02
2017-11-11T07:48:38.070Z,8
2017-11-11T07:49:38.069Z,8.12
2017-11-11T07:50:38.044Z,8.19
2017-11-11T07:51:38.034Z,8.16
2017-11-11T07:52:38.037Z,8.11
2017-11-11T07:53:38.022Z,8.26
2017-11-11T07:54:38.004Z,8.33
2017-11-11T07:55:37.992Z,8.37
2017-11-11T07:56:37.991Z,8.4
2017-11-11T07:57:37.970Z,8.53
2017-11-11T07:58:37.971Z,8.7
2017-11-11T07:59:37.951Z,8.81
2017-11-11T08:00:37.936Z,8.87
2017-11-11T08:01:37.928Z,9.11
2017-11-11T08:02:37.952Z,9.28
2017-11-11T08:03:37.903Z,9.38
2017-11-11T08:04:37.570Z,9.43
2017-11-11T08:05:37.558Z,9.57
2017-11-11T08:06:37.871Z,9.68
2017-11-11T08:07:37.864Z,9.68
2017-11-11T08:08:37.888Z,9.76
2017-11-11T08:09:37.842Z,9.81
2017-11-11T08:10:37.845Z,9.86
2017-11-11T08:11:37.835Z,9.87
2017-11-11T08:12:37.826Z,9.9
2017-11-11T08:13:37.809Z,9.89
2017-11-11T08:14:37.474Z,9.99
2017-11-11T08:15:37.787Z,10.14
2017-11-11T08:16:37.452Z,10.02
2017-11-11T08:17:37.766Z,9.93
2017-11-11T08:18:37.760Z,9.99
2017-11-11T08:19:37.744Z,9.89
2017-11-11T08:20:37.746Z,9.96
2017-11-11T08:21:37.734Z,9.87
2017-11-11T08:22:37.725Z,9.89
2017-11-11T08:23:37.710Z,9.78
2017-11-11T08:24:37.376Z,9.75
2017-11-11T08:25:37.690Z,9.72
2017-11-11T08:26:37.683Z,9.69
2017-11-11T08:27:37.352Z,9.71
2017-11-11T08:28:37.668Z,9.65
2017-11-11T08:29:37.658Z,9.58
2017-11-11T08:30:37.640Z,9.58
2017-11-11T08:31:37.629Z,9.47
2017-11-11T08:32:37.636Z,9.48
2017-11-11T08:33:37.618Z,9.48
2017-11-11T08:34:37.605Z,9.5
2017-11-11T08:35:37.267Z,9.5
2017-11-11T08:36:37.258Z,9.48
2017-11-11T08:37:37.575Z,9.53
2017-11-11T08:38:37.617Z,9.53
2017-11-11T08:39:37.552Z,9.56
2017-11-11T08:40:37.541Z,9.57
2017-11-11T08:41:37.541Z,9.56
2017-11-11T08:42:37.532Z,9.65
2017-11-11T08:43:37.540Z,9.65
2017-11-11T08:44:37.503Z,9.66
2017-11-11T08:45:37.513Z,9.68
2017-11-11T08:46:37.163Z,9.76
2017-11-11T08:47:37.482Z,9.84
2017-11-11T08:48:37.464Z,9.74
2017-11-11T08:49:37.477Z,9.84
2017-11-11T08:50:37.453Z,9.86
2017-11-11T08:51:37.446Z,9.84
2017-11-11T08:52:37.428Z,9.84
2017-11-11T08:53:37.417Z,9.86
2017-11-11T08:54:37.404Z,9.87
2017-11-11T08:55:37.397Z,9.87
2017-11-11T08:56:37.385Z,9.86
2017-11-11T08:57:37.379Z,9.79
2017-11-11T08:58:37.371Z,10.01
2017-11-11T08:59:37.371Z,9.86
2017-11-11T09:00:37.347Z,10.04
2017-11-11T09:01:37.020Z,10.04
2017-11-11T09:02:37.007Z,10.01
2017-11-11T09:03:37.316Z,10.08
2017-11-11T09:04:37.316Z,10.12
2017-11-11T09:05:37.309Z,10.2
2017-11-11T09:06:37.289Z,10.27
2017-11-11T09:07:37.288Z,10.42
2017-11-11T09:08:37.283Z,10.42
2017-11-11T09:09:37.280Z,10.51
2017-11-11T09:10:37.268Z,10.44
2017-11-11T09:11:37.261Z,10.55
2017-11-11T09:12:37.248Z,10.47
2017-11-11T09:13:37.231Z,10.59
2017-11-11T09:14:37.235Z,10.47
2017-11-11T09:15:37.217Z,10.42
2017-11-11T09:16:37.213Z,10.42
2017-11-11T09:17:37.197Z,10.32
2017-11-11T09:18:37.179Z,10.4
2017-11-11T09:19:37.198Z,10.25
2017-11-11T09:20:37.165Z,10.36
2017-11-11T09:21:37.162Z,10.47
2017-11-11T09:22:37.150Z,10.47
2017-11-11T09:23:37.139Z,10.52
2017-11-11T09:24:37.137Z,10.67
2017-11-11T09:25:37.121Z,10.68
2017-11-11T09:26:37.116Z,10.64
2017-11-11T09:27:37.123Z,10.73
2017-11-11T09:28:37.102Z,10.71
2017-11-11T09:29:37.100Z,10.73
2017-11-11T09:30:37.081Z,10.85
2017-11-11T09:31:37.067Z,10.85
2017-11-11T09:32:37.058Z,10.89
2017-11-11T09:33:37.057Z,10.96
2017-11-11T09:34:37.037Z,10.88
2017-11-11T09:35:36.715Z,10.85
2017-11-11T09:36:36.697Z,10.91
2017-11-11T09:37:37.012Z,10.89
2017-11-11T09:38:36.690Z,10.89
2017-11-11T09:39:36.998Z,10.89
2017-11-11T09:40:37.006Z,10.88
2017-11-11T09:41:36.980Z,10.91
2017-11-11T09:42:36.976Z,10.86
2017-11-11T09:43:36.958Z,10.86
2017-11-11T09:44:36.967Z,10.82
2017-11-11T09:45:36.941Z,10.78
2017-11-11T09:46:36.936Z,10.78
2017-11-11T09:47:36.939Z,10.78
2017-11-11T09:48:36.594Z,10.79
2017-11-11T09:49:36.910Z,10.78
2017-11-11T09:50:36.900Z,10.66
2017-11-11T09:51:36.888Z,10.66
2017-11-11T09:52:36.894Z,10.59
2017-11-11T09:53:36.873Z,10.61
2017-11-11T09:54:36.861Z,10.55
2017-11-11T09:55:36.853Z,10.51
2017-11-11T09:56:36.847Z,10.52
2017-11-11T09:57:36.836Z,10.45
2017-11-11T09:58:36.846Z,10.51
2017-11-11T09:59:36.495Z,10.47
2017-11-11T10:00:36.501Z,10.52
2017-11-11T10:01:36.810Z,10.59
2017-11-11T10:02:36.788Z,10.42
2017-11-11T10:03:36.457Z,10.44
2017-11-11T10:04:36.773Z,10.41
2017-11-11T10:05:36.776Z,10.51
2017-11-11T10:06:36.431Z,10.47
2017-11-11T10:07:36.744Z,10.45
2017-11-11T10:08:36.744Z,10.48
2017-11-11T10:09:36.728Z,10.42
2017-11-11T10:10:36.727Z,10.42
2017-11-11T10:11:36.717Z,10.47
2017-11-11T10:12:36.708Z,10.42
2017-11-11T10:13:36.696Z,10.44
2017-11-11T10:14:36.698Z,10.3
2017-11-11T10:15:36.034Z,10.3
2017-11-11T10:16:36.672Z,10.33
2017-11-11T10:17:36.668Z,10.36
2017-11-11T10:18:36.711Z,10.41
2017-11-11T10:19:36.638Z,10.45
2017-11-11T10:20:36.658Z,10.45
2017-11-11T10:21:36.680Z,10.56
2017-11-11T10:22:36.649Z,10.56
2017-11-11T10:23:36.613Z,10.56
2017-11-11T10:24:36.589Z,10.56
2017-11-11T10:25:36.585Z,10.56
2017-11-11T10:26:36.251Z,10.6
2017-11-11T10:27:36.576Z,10.66
2017-11-11T10:28:35.904Z,10.71
2017-11-11T10:29:36.571Z,10.73
2017-11-11T10:30:36.535Z,10.73
2017-11-11T10:31:36.530Z,10.74
2017-11-11T10:32:36.521Z,10.84
2017-11-11T10:33:36.546Z,10.78
2017-11-11T10:34:36.505Z,10.88
2017-11-11T10:35:36.495Z,10.89
2017-11-11T10:36:36.488Z,10.96
2017-11-11T10:37:36.497Z,10.92
2017-11-11T10:38:36.466Z,10.91
2017-11-11T10:39:36.458Z,10.94
2017-11-11T10:40:36.454Z,10.99
2017-11-11T10:41:36.457Z,10.91
2017-11-11T10:42:36.447Z,10.92
2017-11-11T10:43:36.434Z,11.04
2017-11-11T10:44:36.412Z,11.02
2017-11-11T10:45:36.428Z,11.04
2017-11-11T10:46:36.411Z,11.07
2017-11-11T10:47:36.067Z,11.04
2017-11-11T10:48:36.400Z,11.03
2017-11-11T10:49:36.385Z,10.89
2017-11-11T10:50:36.374Z,10.89
2017-11-11T10:51:36.353Z,10.84
2017-11-11T10:52:36.019Z,10.82
2017-11-11T10:53:36.354Z,10.64
2017-11-11T10:54:36.342Z,10.63
2017-11-11T10:55:36.584Z,10.55
2017-11-11T10:56:36.030Z,10.53
2017-11-11T10:57:36.302Z,10.48
2017-11-11T10:58:36.307Z,10.48
2017-11-11T10:59:36.285Z,10.4
2017-11-11T11:00:36.277Z,10.36
2017-11-11T11:01:35.950Z,10.3
2017-11-11T11:02:36.259Z,10.3
2017-11-11T11:03:36.250Z,10.25
2017-11-11T11:04:36.235Z,10.2
2017-11-11T11:05:36.245Z,10.25
2017-11-11T11:06:36.244Z,10.2
2017-11-11T11:07:36.205Z,10.17
2017-11-11T11:08:36.212Z,10.23
2017-11-11T11:09:36.192Z,10.18
2017-11-11T11:10:36.181Z,10.27
2017-11-11T11:11:36.173Z,10.17
2017-11-11T11:12:36.174Z,10.23
2017-11-11T11:13:36.150Z,10.14
2017-11-11T11:14:35.820Z,10.15
2017-11-11T11:15:36.150Z,10.08
2017-11-11T11:16:36.143Z,10.09
2017-11-11T11:17:36.133Z,10.07
2017-11-11T11:18:36.124Z,10.12
2017-11-11T11:19:35.779Z,10.09
2017-11-11T11:20:36.092Z,10.08
2017-11-11T11:21:35.757Z,10.2
2017-11-11T11:22:36.087Z,10.2
2017-11-11T11:23:36.074Z,10.2
2017-11-11T11:24:36.052Z,10.3
2017-11-11T11:25:36.050Z,10.26
2017-11-11T11:26:36.288Z,10.36
2017-11-11T11:27:35.697Z,10.42
2017-11-11T11:28:36.015Z,10.53
2017-11-11T11:29:36.004Z,10.66
2017-11-11T11:30:35.997Z,10.74
2017-11-11T11:31:35.992Z,10.92
2017-11-11T11:32:35.977Z,10.92
2017-11-11T11:33:35.968Z,11.09
2017-11-11T11:34:35.961Z,11.18
2017-11-11T11:35:35.968Z,11.19
2017-11-11T11:36:35.944Z,11.25
2017-11-11T11:37:35.946Z,11.21
2017-11-11T11:38:35.927Z,11.17
2017-11-11T11:39:35.932Z,11.18
2017-11-11T11:40:35.907Z,11.24
2017-11-11T11:41:35.908Z,11.15
2017-11-11T11:42:35.904Z,11.11
2017-11-11T11:43:35.889Z,11.15
2017-11-11T11:44:35.552Z,11.1
2017-11-11T11:45:35.864Z,11.03
2017-11-11T11:46:35.866Z,11.07
2017-11-11T11:47:35.857Z,11.04
2017-11-11T11:48:35.846Z,11
2017-11-11T11:49:35.828Z,10.97
2017-11-11T11:50:35.833Z,10.84
2017-11-11T11:51:35.812Z,10.85
2017-11-11T11:52:35.812Z,10.78
2017-11-11T11:53:35.800Z,10.7
2017-11-11T11:54:35.798Z,10.74
2017-11-11T11:55:35.779Z,10.74
2017-11-11T11:56:35.765Z,10.78
2017-11-11T11:57:35.436Z,10.78
2017-11-11T11:58:35.756Z,10.85
2017-11-11T11:59:35.779Z,10.86
2017-11-11T12:00:35.758Z,10.99
2017-11-11T12:01:35.727Z,11.02
2017-11-11T12:02:35.393Z,11.17
2017-11-11T12:03:35.711Z,11.32
2017-11-11T12:04:35.700Z,11.28
2017-11-11T12:05:35.700Z,11.42
2017-11-11T12:06:35.691Z,11.36
2017-11-11T12:07:35.674Z,11.49
2017-11-11T12:08:35.677Z,11.39
2017-11-11T12:09:35.666Z,11.36
2017-11-11T12:10:35.332Z,11.39
2017-11-11T12:11:35.640Z,11.35
2017-11-11T12:12:35.632Z,11.32
2017-11-11T12:13:35.297Z,11.32
2017-11-11T12:14:35.620Z,11.32
2017-11-11T12:15:35.614Z,11.17
2017-11-11T12:16:35.608Z,11.25
2017-11-11T12:17:35.617Z,11.1
2017-11-11T12:18:35.578Z,11.15
2017-11-11T12:19:35.582Z,11.06
2017-11-11T12:20:35.573Z,11.09
2017-11-11T12:21:35.574Z,11.1
2017-11-11T12:22:35.572Z,11.18
2017-11-11T12:23:35.222Z,11.25
2017-11-11T12:24:35.545Z,11.28
2017-11-11T12:25:35.223Z,11.32
2017-11-11T12:26:35.529Z,11.42
2017-11-11T12:27:35.510Z,11.54
2017-11-11T12:28:35.498Z,11.64
2017-11-11T12:29:35.490Z,11.75
2017-11-11T12:30:35.478Z,11.76
2017-11-11T12:31:35.491Z,11.79
2017-11-11T12:32:35.472Z,11.85
2017-11-11T12:33:35.461Z,12.01
2017-11-11T12:34:35.462Z,11.95
2017-11-11T12:35:35.441Z,11.94
2017-11-11T12:36:35.432Z,12.04
2017-11-11T12:37:35.439Z,12.04
2017-11-11T12:38:35.416Z,12.02
2017-11-11T12:39:35.412Z,12.04
2017-11-11T12:40:35.425Z,11.95
2017-11-11T12:41:35.394Z,11.99
2017-11-11T12:42:35.062Z,11.95
2017-11-11T12:43:35.379Z,11.82
2017-11-11T12:44:35.372Z,11.8
2017-11-11T12:45:35.367Z,11.69
2017-11-11T12:46:35.360Z,11.67
2017-11-11T12:47:35.343Z,11.55
2017-11-11T12:48:35.334Z,11.46
2017-11-11T12:49:35.334Z,11.51
2017-11-11T12:50:35.322Z,11.49
2017-11-11T12:51:34.989Z,11.37
2017-11-11T12:52:35.302Z,11.36
2017-11-11T12:53:35.309Z,11.4
2017-11-11T12:54:35.298Z,11.29
2017-11-11T12:55:35.285Z,11.27
2017-11-11T12:56:35.274Z,11.33
2017-11-11T12:57:35.265Z,11.27
2017-11-11T12:58:35.255Z,11.28
2017-11-11T12:59:34.930Z,11.28
2017-11-11T13:00:35.243Z,11.29
2017-11-11T13:01:34.905Z,11.27
2017-11-11T13:02:35.228Z,11.22
2017-11-11T13:03:35.238Z,11.29
2017-11-11T13:04:35.231Z,11.24
2017-11-11T13:05:35.198Z,11.27
2017-11-11T13:06:35.188Z,11.28
2017-11-11T13:07:35.187Z,11.29
2017-11-11T13:08:35.176Z,11.22
2017-11-11T13:09:35.190Z,11.27
2017-11-11T13:10:35.152Z,11.21
2017-11-11T13:11:35.143Z,11.21
2017-11-11T13:12:35.144Z,11.15
2017-11-11T13:13:35.135Z,11.1